sensor_id;sensor_type;location;lat;lon;timestamp;P1;durP1;ratioP1;P2;durP2;ratioP2
67776;SDS011;54576;52.020;5.536;2023-06-26T00:00:17;21.63;;;6.88;;
67776;SDS011;54576;52.020;5.536;2023-06-26T00:02:43;7.75;;;6.45;;
67776;SDS011;54576;52.020;5.536;2023-06-26T00:05:09;7.25;;;6.53;;
67776;SDS011;54576;52.020;5.536;2023-06-26T00:07:35;8.85;;;7.07;;
67776;SDS011;54576;52.020;5.536;2023-06-26T00:10:02;8.25;;;7.13;;
67776;SDS011;54576;52.020;5.536;2023-06-26T00:12:28;9.27;;;7.03;;
67776;SDS011;54576;52.020;5.536;2023-06-26T00:14:55;9.35;;;7.05;;
67776;SDS011;54576;52.020;5.536;2023-06-26T00:17:20;11.35;;;6.85;;
67776;SDS011;54576;52.020;5.536;2023-06-26T00:19:46;12.13;;;7.10;;
67776;SDS011;54576;52.020;5.536;2023-06-26T00:22:12;9.00;;;6.93;;
67776;SDS011;54576;52.020;5.536;2023-06-26T00:24:38;10.82;;;7.00;;
67776;SDS011;54576;52.020;5.536;2023-06-26T00:27:04;8.45;;;6.85;;
67776;SDS011;54576;52.020;5.536;2023-06-26T00:29:29;7.88;;;6.75;;
67776;SDS011;54576;52.020;5.536;2023-06-26T00:31:55;13.15;;;7.28;;
67776;SDS011;54576;52.020;5.536;2023-06-26T00:34:20;9.35;;;6.57;;
67776;SDS011;54576;52.020;5.536;2023-06-26T00:36:46;16.42;;;7.65;;
67776;SDS011;54576;52.020;5.536;2023-06-26T00:39:12;7.07;;;6.00;;
67776;SDS011;54576;52.020;5.536;2023-06-26T00:41:37;6.78;;;6.07;;
67776;SDS011;54576;52.020;5.536;2023-06-26T00:44:03;13.68;;;7.13;;
67776;SDS011;54576;52.020;5.536;2023-06-26T00:46:30;10.23;;;6.07;;
67776;SDS011;54576;52.020;5.536;2023-06-26T00:48:56;8.68;;;6.57;;
67776;SDS011;54576;52.020;5.536;2023-06-26T00:51:23;9.15;;;6.93;;
67776;SDS011;54576;52.020;5.536;2023-06-26T00:53:49;14.52;;;7.05;;
67776;SDS011;54576;52.020;5.536;2023-06-26T00:56:15;12.52;;;6.65;;
67776;SDS011;54576;52.020;5.536;2023-06-26T00:58:43;7.93;;;6.60;;
67776;SDS011;54576;52.020;5.536;2023-06-26T01:01:09;7.05;;;6.35;;
67776;SDS011;54576;52.020;5.536;2023-06-26T01:03:40;6.68;;;5.88;;
67776;SDS011;54576;52.020;5.536;2023-06-26T01:06:07;8.23;;;6.47;;
67776;SDS011;54576;52.020;5.536;2023-06-26T01:08:36;10.68;;;6.05;;
67776;SDS011;54576;52.020;5.536;2023-06-26T01:11:03;7.30;;;6.32;;
67776;SDS011;54576;52.020;5.536;2023-06-26T01:13:28;11.05;;;6.78;;
67776;SDS011;54576;52.020;5.536;2023-06-26T01:15:55;7.53;;;6.38;;
67776;SDS011;54576;52.020;5.536;2023-06-26T01:18:25;10.27;;;6.32;;
67776;SDS011;54576;52.020;5.536;2023-06-26T01:20:51;8.45;;;6.05;;
67776;SDS011;54576;52.020;5.536;2023-06-26T01:23:30;7.53;;;5.95;;
67776;SDS011;54576;52.020;5.536;2023-06-26T01:26:19;8.57;;;6.35;;
67776;SDS011;54576;52.020;5.536;2023-06-26T01:28:46;9.05;;;6.07;;
67776;SDS011;54576;52.020;5.536;2023-06-26T01:31:13;7.00;;;5.75;;
67776;SDS011;54576;52.020;5.536;2023-06-26T01:33:43;7.80;;;5.72;;
67776;SDS011;54576;52.020;5.536;2023-06-26T01:36:08;11.95;;;5.57;;
67776;SDS011;54576;52.020;5.536;2023-06-26T01:38:35;8.48;;;5.40;;
67776;SDS011;54576;52.020;5.536;2023-06-26T01:41:01;7.00;;;5.15;;
67776;SDS011;54576;52.020;5.536;2023-06-26T01:46:18;8.82;;;4.90;;
67776;SDS011;54576;52.020;5.536;2023-06-26T01:49:07;9.80;;;4.32;;
67776;SDS011;54576;52.020;5.536;2023-06-26T01:51:38;7.85;;;4.60;;
67776;SDS011;54576;52.020;5.536;2023-06-26T01:54:09;7.82;;;3.70;;
67776;SDS011;54576;52.020;5.536;2023-06-26T01:56:38;10.13;;;3.83;;
67776;SDS011;54576;52.020;5.536;2023-06-26T01:59:05;8.30;;;4.32;;
67776;SDS011;54576;52.020;5.536;2023-06-26T02:01:32;16.23;;;4.55;;
67776;SDS011;54576;52.020;5.536;2023-06-26T02:03:58;10.90;;;3.90;;
67776;SDS011;54576;52.020;5.536;2023-06-26T02:06:24;12.60;;;4.05;;
67776;SDS011;54576;52.020;5.536;2023-06-26T02:08:50;11.63;;;3.88;;
67776;SDS011;54576;52.020;5.536;2023-06-26T02:11:16;11.65;;;3.95;;
67776;SDS011;54576;52.020;5.536;2023-06-26T02:13:41;8.77;;;3.65;;
67776;SDS011;54576;52.020;5.536;2023-06-26T02:16:07;9.10;;;3.58;;
67776;SDS011;54576;52.020;5.536;2023-06-26T02:18:32;16.50;;;4.35;;
67776;SDS011;54576;52.020;5.536;2023-06-26T02:20:58;11.15;;;3.70;;
67776;SDS011;54576;52.020;5.536;2023-06-26T02:23:23;14.80;;;4.10;;
67776;SDS011;54576;52.020;5.536;2023-06-26T02:25:49;10.52;;;3.83;;
67776;SDS011;54576;52.020;5.536;2023-06-26T02:28:14;8.43;;;3.75;;
67776;SDS011;54576;52.020;5.536;2023-06-26T02:30:40;10.55;;;3.85;;
67776;SDS011;54576;52.020;5.536;2023-06-26T02:33:05;12.55;;;4.38;;
67776;SDS011;54576;52.020;5.536;2023-06-26T02:35:31;10.48;;;3.50;;
67776;SDS011;54576;52.020;5.536;2023-06-26T02:37:58;10.27;;;3.88;;
67776;SDS011;54576;52.020;5.536;2023-06-26T02:40:23;11.10;;;3.67;;
67776;SDS011;54576;52.020;5.536;2023-06-26T02:42:49;13.55;;;3.95;;
67776;SDS011;54576;52.020;5.536;2023-06-26T02:45:14;8.88;;;4.00;;
67776;SDS011;54576;52.020;5.536;2023-06-26T02:47:40;10.07;;;3.97;;
67776;SDS011;54576;52.020;5.536;2023-06-26T02:52:34;8.32;;;3.80;;
67776;SDS011;54576;52.020;5.536;2023-06-26T02:55:00;18.63;;;4.53;;
67776;SDS011;54576;52.020;5.536;2023-06-26T02:57:25;15.15;;;4.38;;
67776;SDS011;54576;52.020;5.536;2023-06-26T02:59:51;12.68;;;3.88;;
67776;SDS011;54576;52.020;5.536;2023-06-26T03:02:16;17.42;;;5.00;;
67776;SDS011;54576;52.020;5.536;2023-06-26T03:04:42;12.88;;;4.32;;
67776;SDS011;54576;52.020;5.536;2023-06-26T03:07:08;10.75;;;3.97;;
67776;SDS011;54576;52.020;5.536;2023-06-26T03:09:34;14.02;;;4.97;;
67776;SDS011;54576;52.020;5.536;2023-06-26T03:11:59;20.45;;;5.03;;
67776;SDS011;54576;52.020;5.536;2023-06-26T03:14:25;9.70;;;4.47;;
67776;SDS011;54576;52.020;5.536;2023-06-26T03:16:51;11.45;;;4.47;;
67776;SDS011;54576;52.020;5.536;2023-06-26T03:19:17;22.92;;;5.50;;
67776;SDS011;54576;52.020;5.536;2023-06-26T03:21:43;14.50;;;4.20;;
67776;SDS011;54576;52.020;5.536;2023-06-26T03:24:09;13.43;;;4.68;;
67776;SDS011;54576;52.020;5.536;2023-06-26T03:26:34;9.65;;;4.47;;
67776;SDS011;54576;52.020;5.536;2023-06-26T03:29:00;13.75;;;4.70;;
67776;SDS011;54576;52.020;5.536;2023-06-26T03:31:25;11.45;;;5.05;;
67776;SDS011;54576;52.020;5.536;2023-06-26T03:33:51;18.08;;;4.80;;
67776;SDS011;54576;52.020;5.536;2023-06-26T03:36:17;16.80;;;4.85;;
67776;SDS011;54576;52.020;5.536;2023-06-26T03:38:42;24.92;;;5.78;;
67776;SDS011;54576;52.020;5.536;2023-06-26T03:41:08;16.92;;;4.65;;
67776;SDS011;54576;52.020;5.536;2023-06-26T03:43:33;21.27;;;5.20;;
67776;SDS011;54576;52.020;5.536;2023-06-26T03:45:59;18.98;;;5.43;;
67776;SDS011;54576;52.020;5.536;2023-06-26T03:48:24;18.20;;;5.03;;
67776;SDS011;54576;52.020;5.536;2023-06-26T03:50:50;19.23;;;5.18;;
67776;SDS011;54576;52.020;5.536;2023-06-26T03:53:16;20.05;;;4.95;;
67776;SDS011;54576;52.020;5.536;2023-06-26T03:55:42;20.60;;;5.55;;
67776;SDS011;54576;52.020;5.536;2023-06-26T03:58:07;17.83;;;5.05;;
67776;SDS011;54576;52.020;5.536;2023-06-26T04:00:33;22.48;;;6.05;;
67776;SDS011;54576;52.020;5.536;2023-06-26T04:02:58;24.02;;;4.97;;
67776;SDS011;54576;52.020;5.536;2023-06-26T04:05:24;18.08;;;4.72;;
67776;SDS011;54576;52.020;5.536;2023-06-26T04:07:50;18.58;;;5.10;;
67776;SDS011;54576;52.020;5.536;2023-06-26T04:10:17;16.60;;;5.07;;
67776;SDS011;54576;52.020;5.536;2023-06-26T04:12:43;19.30;;;5.50;;
67776;SDS011;54576;52.020;5.536;2023-06-26T04:15:09;21.80;;;5.78;;
67776;SDS011;54576;52.020;5.536;2023-06-26T04:17:34;21.25;;;5.88;;
67776;SDS011;54576;52.020;5.536;2023-06-26T04:20:00;23.50;;;6.68;;
67776;SDS011;54576;52.020;5.536;2023-06-26T04:22:26;17.77;;;5.50;;
67776;SDS011;54576;52.020;5.536;2023-06-26T04:24:51;23.75;;;5.70;;
67776;SDS011;54576;52.020;5.536;2023-06-26T04:27:17;16.90;;;5.00;;
67776;SDS011;54576;52.020;5.536;2023-06-26T04:29:43;21.33;;;5.00;;
67776;SDS011;54576;52.020;5.536;2023-06-26T04:32:09;24.17;;;5.80;;
67776;SDS011;54576;52.020;5.536;2023-06-26T04:34:36;25.17;;;5.38;;
67776;SDS011;54576;52.020;5.536;2023-06-26T04:37:03;17.70;;;5.35;;
67776;SDS011;54576;52.020;5.536;2023-06-26T04:39:29;19.63;;;5.78;;
67776;SDS011;54576;52.020;5.536;2023-06-26T04:41:55;14.30;;;4.68;;
67776;SDS011;54576;52.020;5.536;2023-06-26T04:44:21;16.45;;;5.22;;
67776;SDS011;54576;52.020;5.536;2023-06-26T04:46:46;17.77;;;4.75;;
67776;SDS011;54576;52.020;5.536;2023-06-26T04:49:12;30.08;;;5.40;;
67776;SDS011;54576;52.020;5.536;2023-06-26T04:51:38;23.95;;;5.30;;
67776;SDS011;54576;52.020;5.536;2023-06-26T04:54:08;14.63;;;4.40;;
67776;SDS011;54576;52.020;5.536;2023-06-26T04:56:35;17.70;;;5.05;;
67776;SDS011;54576;52.020;5.536;2023-06-26T04:59:01;13.88;;;4.47;;
67776;SDS011;54576;52.020;5.536;2023-06-26T05:01:27;12.70;;;4.22;;
67776;SDS011;54576;52.020;5.536;2023-06-26T05:03:54;19.60;;;4.70;;
67776;SDS011;54576;52.020;5.536;2023-06-26T05:06:21;12.07;;;4.55;;
67776;SDS011;54576;52.020;5.536;2023-06-26T05:08:47;14.18;;;5.10;;
67776;SDS011;54576;52.020;5.536;2023-06-26T05:11:12;9.77;;;4.10;;
67776;SDS011;54576;52.020;5.536;2023-06-26T05:13:38;13.38;;;4.15;;
67776;SDS011;54576;52.020;5.536;2023-06-26T05:16:03;15.85;;;4.93;;
67776;SDS011;54576;52.020;5.536;2023-06-26T05:18:29;12.63;;;4.05;;
67776;SDS011;54576;52.020;5.536;2023-06-26T05:20:55;17.67;;;3.97;;
67776;SDS011;54576;52.020;5.536;2023-06-26T05:23:20;15.30;;;4.47;;
67776;SDS011;54576;52.020;5.536;2023-06-26T05:25:49;17.90;;;4.32;;
67776;SDS011;54576;52.020;5.536;2023-06-26T05:28:15;10.85;;;3.92;;
67776;SDS011;54576;52.020;5.536;2023-06-26T05:30:41;9.10;;;3.60;;
67776;SDS011;54576;52.020;5.536;2023-06-26T05:33:07;12.35;;;3.63;;
67776;SDS011;54576;52.020;5.536;2023-06-26T05:35:36;17.50;;;4.18;;
67776;SDS011;54576;52.020;5.536;2023-06-26T05:38:02;11.73;;;3.38;;
67776;SDS011;54576;52.020;5.536;2023-06-26T05:40:27;9.18;;;3.60;;
67776;SDS011;54576;52.020;5.536;2023-06-26T05:42:53;6.75;;;3.30;;
67776;SDS011;54576;52.020;5.536;2023-06-26T05:45:19;8.27;;;3.38;;
67776;SDS011;54576;52.020;5.536;2023-06-26T05:47:44;10.77;;;3.22;;
67776;SDS011;54576;52.020;5.536;2023-06-26T05:50:11;8.30;;;2.53;;
67776;SDS011;54576;52.020;5.536;2023-06-26T05:52:37;7.18;;;2.60;;
67776;SDS011;54576;52.020;5.536;2023-06-26T05:55:07;9.85;;;3.00;;
67776;SDS011;54576;52.020;5.536;2023-06-26T05:57:33;11.15;;;2.60;;
67776;SDS011;54576;52.020;5.536;2023-06-26T06:00:00;11.13;;;3.00;;
67776;SDS011;54576;52.020;5.536;2023-06-26T06:02:27;5.05;;;2.33;;
67776;SDS011;54576;52.020;5.536;2023-06-26T06:04:53;6.18;;;3.05;;
67776;SDS011;54576;52.020;5.536;2023-06-26T06:07:19;6.53;;;3.00;;
67776;SDS011;54576;52.020;5.536;2023-06-26T06:09:45;4.90;;;2.40;;
67776;SDS011;54576;52.020;5.536;2023-06-26T06:12:10;6.32;;;2.47;;
67776;SDS011;54576;52.020;5.536;2023-06-26T06:14:36;6.18;;;2.60;;
67776;SDS011;54576;52.020;5.536;2023-06-26T06:17:01;6.88;;;2.47;;
67776;SDS011;54576;52.020;5.536;2023-06-26T06:19:27;10.30;;;3.22;;
67776;SDS011;54576;52.020;5.536;2023-06-26T06:21:53;4.20;;;2.30;;
67776;SDS011;54576;52.020;5.536;2023-06-26T06:24:21;7.20;;;2.22;;
67776;SDS011;54576;52.020;5.536;2023-06-26T06:26:47;10.02;;;2.50;;
67776;SDS011;54576;52.020;5.536;2023-06-26T06:29:13;6.35;;;2.20;;
67776;SDS011;54576;52.020;5.536;2023-06-26T06:31:39;8.07;;;2.28;;
67776;SDS011;54576;52.020;5.536;2023-06-26T06:34:05;8.60;;;1.95;;
67776;SDS011;54576;52.020;5.536;2023-06-26T06:36:31;5.68;;;1.50;;
67776;SDS011;54576;52.020;5.536;2023-06-26T06:38:57;4.43;;;2.40;;
67776;SDS011;54576;52.020;5.536;2023-06-26T06:41:23;7.68;;;2.10;;
67776;SDS011;54576;52.020;5.536;2023-06-26T06:43:48;8.60;;;2.42;;
67776;SDS011;54576;52.020;5.536;2023-06-26T06:46:14;3.35;;;2.15;;
67776;SDS011;54576;52.020;5.536;2023-06-26T06:48:40;8.05;;;2.70;;
67776;SDS011;54576;52.020;5.536;2023-06-26T06:51:06;3.85;;;1.98;;
67776;SDS011;54576;52.020;5.536;2023-06-26T06:53:31;7.15;;;2.35;;
67776;SDS011;54576;52.020;5.536;2023-06-26T06:55:57;10.02;;;2.47;;
67776;SDS011;54576;52.020;5.536;2023-06-26T06:58:22;5.93;;;2.20;;
67776;SDS011;54576;52.020;5.536;2023-06-26T07:00:48;5.43;;;2.38;;
67776;SDS011;54576;52.020;5.536;2023-06-26T07:03:16;10.82;;;2.60;;
67776;SDS011;54576;52.020;5.536;2023-06-26T07:05:41;5.72;;;2.53;;
67776;SDS011;54576;52.020;5.536;2023-06-26T07:08:07;5.82;;;2.88;;
67776;SDS011;54576;52.020;5.536;2023-06-26T07:10:33;3.40;;;2.05;;
67776;SDS011;54576;52.020;5.536;2023-06-26T07:12:59;3.90;;;2.30;;
67776;SDS011;54576;52.020;5.536;2023-06-26T07:15:24;5.50;;;2.47;;
67776;SDS011;54576;52.020;5.536;2023-06-26T07:17:50;6.97;;;2.00;;
67776;SDS011;54576;52.020;5.536;2023-06-26T07:20:16;2.50;;;2.03;;
67776;SDS011;54576;52.020;5.536;2023-06-26T07:22:42;7.13;;;2.83;;
67776;SDS011;54576;52.020;5.536;2023-06-26T07:25:09;6.10;;;2.13;;
67776;SDS011;54576;52.020;5.536;2023-06-26T07:27:44;6.85;;;2.10;;
67776;SDS011;54576;52.020;5.536;2023-06-26T07:30:10;7.00;;;2.13;;
67776;SDS011;54576;52.020;5.536;2023-06-26T07:32:36;8.38;;;2.08;;
67776;SDS011;54576;52.020;5.536;2023-06-26T07:35:03;7.20;;;2.10;;
67776;SDS011;54576;52.020;5.536;2023-06-26T07:37:28;6.20;;;2.13;;
67776;SDS011;54576;52.020;5.536;2023-06-26T07:39:54;7.93;;;2.65;;
67776;SDS011;54576;52.020;5.536;2023-06-26T07:42:20;7.55;;;2.72;;
67776;SDS011;54576;52.020;5.536;2023-06-26T07:44:45;11.75;;;2.20;;
67776;SDS011;54576;52.020;5.536;2023-06-26T07:47:11;6.07;;;2.20;;
67776;SDS011;54576;52.020;5.536;2023-06-26T07:49:37;11.52;;;3.25;;
67776;SDS011;54576;52.020;5.536;2023-06-26T07:52:04;7.35;;;2.72;;
67776;SDS011;54576;52.020;5.536;2023-06-26T07:54:30;10.50;;;2.78;;
67776;SDS011;54576;52.020;5.536;2023-06-26T07:56:57;6.55;;;2.50;;
67776;SDS011;54576;52.020;5.536;2023-06-26T07:59:26;8.02;;;2.65;;
67776;SDS011;54576;52.020;5.536;2023-06-26T08:01:54;19.73;;;3.13;;
67776;SDS011;54576;52.020;5.536;2023-06-26T08:04:21;7.60;;;2.40;;
67776;SDS011;54576;52.020;5.536;2023-06-26T08:06:52;5.18;;;2.33;;
67776;SDS011;54576;52.020;5.536;2023-06-26T08:09:20;12.07;;;2.83;;
67776;SDS011;54576;52.020;5.536;2023-06-26T08:11:52;19.88;;;3.08;;
67776;SDS011;54576;52.020;5.536;2023-06-26T08:14:18;7.10;;;2.70;;
67776;SDS011;54576;52.020;5.536;2023-06-26T08:16:44;16.88;;;3.42;;
67776;SDS011;54576;52.020;5.536;2023-06-26T08:19:13;12.50;;;2.70;;
67776;SDS011;54576;52.020;5.536;2023-06-26T08:21:39;10.07;;;2.45;;
67776;SDS011;54576;52.020;5.536;2023-06-26T08:24:06;7.50;;;2.78;;
67776;SDS011;54576;52.020;5.536;2023-06-26T08:26:31;7.25;;;2.45;;
67776;SDS011;54576;52.020;5.536;2023-06-26T08:28:57;7.70;;;2.17;;
67776;SDS011;54576;52.020;5.536;2023-06-26T08:31:23;7.28;;;2.30;;
67776;SDS011;54576;52.020;5.536;2023-06-26T08:33:48;9.73;;;2.95;;
67776;SDS011;54576;52.020;5.536;2023-06-26T08:36:14;9.68;;;2.30;;
67776;SDS011;54576;52.020;5.536;2023-06-26T08:38:39;10.20;;;2.70;;
67776;SDS011;54576;52.020;5.536;2023-06-26T08:41:06;9.27;;;2.13;;
67776;SDS011;54576;52.020;5.536;2023-06-26T08:43:32;16.00;;;2.70;;
67776;SDS011;54576;52.020;5.536;2023-06-26T08:45:58;6.15;;;1.95;;
67776;SDS011;54576;52.020;5.536;2023-06-26T08:48:24;10.63;;;1.88;;
67776;SDS011;54576;52.020;5.536;2023-06-26T08:50:52;7.68;;;2.08;;
67776;SDS011;54576;52.020;5.536;2023-06-26T08:56:02;7.68;;;1.75;;
67776;SDS011;54576;52.020;5.536;2023-06-26T08:58:29;7.15;;;1.88;;
67776;SDS011;54576;52.020;5.536;2023-06-26T09:00:55;11.88;;;1.85;;
67776;SDS011;54576;52.020;5.536;2023-06-26T09:03:21;13.13;;;1.95;;
67776;SDS011;54576;52.020;5.536;2023-06-26T09:05:48;6.07;;;1.70;;
67776;SDS011;54576;52.020;5.536;2023-06-26T09:08:13;10.80;;;1.55;;
67776;SDS011;54576;52.020;5.536;2023-06-26T09:10:39;6.93;;;2.10;;
67776;SDS011;54576;52.020;5.536;2023-06-26T09:13:06;8.13;;;1.70;;
67776;SDS011;54576;52.020;5.536;2023-06-26T09:15:39;3.85;;;1.60;;
67776;SDS011;54576;52.020;5.536;2023-06-26T09:18:07;6.85;;;1.42;;
67776;SDS011;54576;52.020;5.536;2023-06-26T09:20:33;4.93;;;1.33;;
67776;SDS011;54576;52.020;5.536;2023-06-26T09:22:59;10.20;;;1.35;;
67776;SDS011;54576;52.020;5.536;2023-06-26T09:25:25;8.63;;;2.03;;
67776;SDS011;54576;52.020;5.536;2023-06-26T09:27:54;7.00;;;1.08;;
67776;SDS011;54576;52.020;5.536;2023-06-26T09:30:21;4.03;;;1.35;;
67776;SDS011;54576;52.020;5.536;2023-06-26T09:32:47;10.10;;;1.63;;
67776;SDS011;54576;52.020;5.536;2023-06-26T09:35:14;1.83;;;0.90;;
67776;SDS011;54576;52.020;5.536;2023-06-26T09:37:40;8.93;;;1.65;;
67776;SDS011;54576;52.020;5.536;2023-06-26T09:40:06;2.42;;;1.20;;
67776;SDS011;54576;52.020;5.536;2023-06-26T09:42:32;7.35;;;1.20;;
67776;SDS011;54576;52.020;5.536;2023-06-26T09:44:58;6.88;;;1.13;;
67776;SDS011;54576;52.020;5.536;2023-06-26T09:47:24;11.02;;;1.80;;
67776;SDS011;54576;52.020;5.536;2023-06-26T09:49:50;5.93;;;1.13;;
67776;SDS011;54576;52.020;5.536;2023-06-26T09:52:17;6.85;;;1.52;;
67776;SDS011;54576;52.020;5.536;2023-06-26T09:54:44;9.18;;;1.27;;
67776;SDS011;54576;52.020;5.536;2023-06-26T09:57:15;7.63;;;1.20;;
67776;SDS011;54576;52.020;5.536;2023-06-26T09:59:42;4.78;;;1.50;;
67776;SDS011;54576;52.020;5.536;2023-06-26T10:04:36;8.07;;;1.20;;
67776;SDS011;54576;52.020;5.536;2023-06-26T10:07:06;2.00;;;1.13;;
67776;SDS011;54576;52.020;5.536;2023-06-26T10:09:41;3.53;;;0.93;;
67776;SDS011;54576;52.020;5.536;2023-06-26T10:12:20;7.07;;;1.30;;
67776;SDS011;54576;52.020;5.536;2023-06-26T10:14:55;6.20;;;1.25;;
67776;SDS011;54576;52.020;5.536;2023-06-26T10:17:27;5.15;;;1.45;;
67776;SDS011;54576;52.020;5.536;2023-06-26T10:19:55;4.13;;;1.40;;
67776;SDS011;54576;52.020;5.536;2023-06-26T10:22:21;9.38;;;1.50;;
67776;SDS011;54576;52.020;5.536;2023-06-26T10:24:52;2.40;;;1.40;;
67776;SDS011;54576;52.020;5.536;2023-06-26T10:27:21;8.93;;;1.63;;
67776;SDS011;54576;52.020;5.536;2023-06-26T10:29:55;1.60;;;0.95;;
67776;SDS011;54576;52.020;5.536;2023-06-26T10:32:23;6.75;;;1.17;;
67776;SDS011;54576;52.020;5.536;2023-06-26T10:34:50;2.97;;;1.48;;
67776;SDS011;54576;52.020;5.536;2023-06-26T10:37:17;1.67;;;0.95;;
67776;SDS011;54576;52.020;5.536;2023-06-26T10:42:14;3.20;;;1.20;;
67776;SDS011;54576;52.020;5.536;2023-06-26T10:44:41;3.75;;;1.20;;
67776;SDS011;54576;52.020;5.536;2023-06-26T10:47:08;5.78;;;1.05;;
67776;SDS011;54576;52.020;5.536;2023-06-26T10:49:35;2.80;;;1.40;;
67776;SDS011;54576;52.020;5.536;2023-06-26T10:52:02;3.78;;;1.42;;
67776;SDS011;54576;52.020;5.536;2023-06-26T10:54:37;1.60;;;0.98;;
67776;SDS011;54576;52.020;5.536;2023-06-26T10:57:03;3.63;;;1.55;;
67776;SDS011;54576;52.020;5.536;2023-06-26T10:59:32;1.77;;;0.90;;
67776;SDS011;54576;52.020;5.536;2023-06-26T11:01:59;1.27;;;0.80;;
67776;SDS011;54576;52.020;5.536;2023-06-26T11:09:57;2.65;;;1.05;;
67776;SDS011;54576;52.020;5.536;2023-06-26T11:12:36;6.10;;;1.35;;
67776;SDS011;54576;52.020;5.536;2023-06-26T11:15:10;2.50;;;1.00;;
67776;SDS011;54576;52.020;5.536;2023-06-26T11:17:38;3.92;;;1.08;;
67776;SDS011;54576;52.020;5.536;2023-06-26T11:20:07;3.03;;;1.25;;
67776;SDS011;54576;52.020;5.536;2023-06-26T11:22:34;6.53;;;1.17;;
67776;SDS011;54576;52.020;5.536;2023-06-26T11:25:01;7.03;;;1.08;;
67776;SDS011;54576;52.020;5.536;2023-06-26T11:27:46;4.93;;;1.30;;
67776;SDS011;54576;52.020;5.536;2023-06-26T11:30:22;3.30;;;1.30;;
67776;SDS011;54576;52.020;5.536;2023-06-26T11:32:49;5.13;;;1.27;;
67776;SDS011;54576;52.020;5.536;2023-06-26T11:35:24;2.15;;;0.82;;
67776;SDS011;54576;52.020;5.536;2023-06-26T11:37:55;6.50;;;1.38;;
67776;SDS011;54576;52.020;5.536;2023-06-26T11:40:22;6.32;;;1.50;;
67776;SDS011;54576;52.020;5.536;2023-06-26T11:42:52;3.25;;;1.25;;
67776;SDS011;54576;52.020;5.536;2023-06-26T11:45:19;5.38;;;1.40;;
67776;SDS011;54576;52.020;5.536;2023-06-26T11:47:59;3.33;;;1.20;;
67776;SDS011;54576;52.020;5.536;2023-06-26T11:50:25;4.40;;;1.33;;
67776;SDS011;54576;52.020;5.536;2023-06-26T11:52:55;4.55;;;1.55;;
67776;SDS011;54576;52.020;5.536;2023-06-26T11:55:22;4.93;;;1.15;;
67776;SDS011;54576;52.020;5.536;2023-06-26T11:57:49;3.13;;;1.10;;
67776;SDS011;54576;52.020;5.536;2023-06-26T12:00:15;2.72;;;1.45;;
67776;SDS011;54576;52.020;5.536;2023-06-26T12:02:42;4.28;;;0.80;;
67776;SDS011;54576;52.020;5.536;2023-06-26T12:05:09;6.40;;;1.13;;
67776;SDS011;54576;52.020;5.536;2023-06-26T12:07:36;5.28;;;1.25;;
67776;SDS011;54576;52.020;5.536;2023-06-26T12:10:02;1.90;;;0.98;;
67776;SDS011;54576;52.020;5.536;2023-06-26T12:12:30;3.35;;;1.00;;
67776;SDS011;54576;52.020;5.536;2023-06-26T12:14:56;2.72;;;1.20;;
67776;SDS011;54576;52.020;5.536;2023-06-26T12:17:23;2.75;;;1.00;;
67776;SDS011;54576;52.020;5.536;2023-06-26T12:19:50;2.83;;;1.23;;
67776;SDS011;54576;52.020;5.536;2023-06-26T12:22:16;2.05;;;0.90;;
67776;SDS011;54576;52.020;5.536;2023-06-26T12:24:43;2.35;;;1.25;;
67776;SDS011;54576;52.020;5.536;2023-06-26T12:27:10;2.10;;;0.88;;
67776;SDS011;54576;52.020;5.536;2023-06-26T12:29:39;1.98;;;0.90;;
67776;SDS011;54576;52.020;5.536;2023-06-26T12:32:09;2.00;;;1.05;;
67776;SDS011;54576;52.020;5.536;2023-06-26T12:34:36;1.55;;;0.80;;
67776;SDS011;54576;52.020;5.536;2023-06-26T12:37:10;3.00;;;0.77;;
67776;SDS011;54576;52.020;5.536;2023-06-26T12:39:52;1.58;;;0.98;;
67776;SDS011;54576;52.020;5.536;2023-06-26T12:44:53;4.20;;;0.98;;
67776;SDS011;54576;52.020;5.536;2023-06-26T12:47:25;1.08;;;0.50;;
67776;SDS011;54576;52.020;5.536;2023-06-26T12:49:52;4.18;;;1.10;;
67776;SDS011;54576;52.020;5.536;2023-06-26T12:52:18;5.18;;;0.70;;
67776;SDS011;54576;52.020;5.536;2023-06-26T12:54:51;4.63;;;1.27;;
67776;SDS011;54576;52.020;5.536;2023-06-26T12:57:18;14.07;;;0.95;;
67776;SDS011;54576;52.020;5.536;2023-06-26T12:59:44;4.25;;;0.70;;
67776;SDS011;54576;52.020;5.536;2023-06-26T13:02:09;4.82;;;1.25;;
67776;SDS011;54576;52.020;5.536;2023-06-26T13:04:36;7.30;;;1.13;;
67776;SDS011;54576;52.020;5.536;2023-06-26T13:07:05;2.72;;;0.80;;
67776;SDS011;54576;52.020;5.536;2023-06-26T13:09:33;8.02;;;0.80;;
67776;SDS011;54576;52.020;5.536;2023-06-26T13:12:00;2.10;;;1.05;;
67776;SDS011;54576;52.020;5.536;2023-06-26T13:14:26;6.97;;;1.08;;
67776;SDS011;54576;52.020;5.536;2023-06-26T13:16:52;2.17;;;0.77;;
67776;SDS011;54576;52.020;5.536;2023-06-26T13:19:17;3.30;;;0.85;;
67776;SDS011;54576;52.020;5.536;2023-06-26T13:21:43;5.57;;;0.98;;
67776;SDS011;54576;52.020;5.536;2023-06-26T13:24:09;3.17;;;0.98;;
67776;SDS011;54576;52.020;5.536;2023-06-26T13:26:35;4.20;;;1.27;;
67776;SDS011;54576;52.020;5.536;2023-06-26T13:29:00;7.97;;;1.02;;
67776;SDS011;54576;52.020;5.536;2023-06-26T13:31:26;1.15;;;0.95;;
67776;SDS011;54576;52.020;5.536;2023-06-26T13:33:52;2.80;;;0.70;;
67776;SDS011;54576;52.020;5.536;2023-06-26T13:36:18;2.88;;;0.80;;
67776;SDS011;54576;52.020;5.536;2023-06-26T13:38:44;6.28;;;0.90;;
67776;SDS011;54576;52.020;5.536;2023-06-26T13:41:10;5.20;;;0.98;;
67776;SDS011;54576;52.020;5.536;2023-06-26T13:43:36;2.53;;;0.80;;
67776;SDS011;54576;52.020;5.536;2023-06-26T13:46:02;2.95;;;0.80;;
67776;SDS011;54576;52.020;5.536;2023-06-26T13:48:28;3.97;;;1.00;;
67776;SDS011;54576;52.020;5.536;2023-06-26T13:50:54;5.40;;;1.40;;
67776;SDS011;54576;52.020;5.536;2023-06-26T13:53:21;8.45;;;1.10;;
67776;SDS011;54576;52.020;5.536;2023-06-26T13:55:46;3.13;;;1.00;;
67776;SDS011;54576;52.020;5.536;2023-06-26T13:58:12;10.25;;;1.20;;
67776;SDS011;54576;52.020;5.536;2023-06-26T14:00:38;9.18;;;1.00;;
67776;SDS011;54576;52.020;5.536;2023-06-26T14:03:04;5.57;;;1.23;;
67776;SDS011;54576;52.020;5.536;2023-06-26T14:05:32;1.90;;;0.70;;
67776;SDS011;54576;52.020;5.536;2023-06-26T14:08:04;0.73;;;0.70;;
67776;SDS011;54576;52.020;5.536;2023-06-26T14:10:31;1.23;;;0.60;;
67776;SDS011;54576;52.020;5.536;2023-06-26T14:12:58;2.67;;;0.98;;
67776;SDS011;54576;52.020;5.536;2023-06-26T14:15:24;2.10;;;0.73;;
67776;SDS011;54576;52.020;5.536;2023-06-26T14:17:50;2.72;;;0.90;;
67776;SDS011;54576;52.020;5.536;2023-06-26T14:20:16;3.38;;;0.75;;
67776;SDS011;54576;52.020;5.536;2023-06-26T14:22:43;13.35;;;1.00;;
67776;SDS011;54576;52.020;5.536;2023-06-26T14:25:12;1.90;;;1.10;;
67776;SDS011;54576;52.020;5.536;2023-06-26T14:27:38;0.93;;;0.63;;
67776;SDS011;54576;52.020;5.536;2023-06-26T14:30:04;5.97;;;1.20;;
67776;SDS011;54576;52.020;5.536;2023-06-26T14:32:31;6.07;;;1.25;;
67776;SDS011;54576;52.020;5.536;2023-06-26T14:34:57;4.03;;;1.13;;
67776;SDS011;54576;52.020;5.536;2023-06-26T14:37:22;3.17;;;1.17;;
67776;SDS011;54576;52.020;5.536;2023-06-26T14:39:48;2.47;;;1.10;;
67776;SDS011;54576;52.020;5.536;2023-06-26T14:42:14;2.33;;;0.90;;
67776;SDS011;54576;52.020;5.536;2023-06-26T14:44:40;2.00;;;0.60;;
67776;SDS011;54576;52.020;5.536;2023-06-26T14:47:06;0.57;;;0.40;;
67776;SDS011;54576;52.020;5.536;2023-06-26T14:49:31;5.22;;;1.00;;
67776;SDS011;54576;52.020;5.536;2023-06-26T14:51:57;3.10;;;0.63;;
67776;SDS011;54576;52.020;5.536;2023-06-26T14:54:22;2.80;;;0.75;;
67776;SDS011;54576;52.020;5.536;2023-06-26T14:56:49;1.98;;;1.02;;
67776;SDS011;54576;52.020;5.536;2023-06-26T14:59:14;3.90;;;0.73;;
67776;SDS011;54576;52.020;5.536;2023-06-26T15:01:40;5.50;;;1.38;;